Hachinohe Air Base, Japan

5:21 PM JST on February 01, 2015 (GMT +0900)
Misawa AB | Change Station
CLOSE
Current Station
Personal Weather Station
Location: Misawa-shi, AOMORI-KEN
Elevation: 141 ft
Nearby Weather Stations

Elev 141 ft 40.69 °N, 141.36 °E | Updated 14 seconds ago

Scattered Clouds
Scattered Clouds
31.3 °F
Feels Like 31 °F
N
0.2
Wind Variable Wind from WNW
Gusts 2.5 mph

Today
High -- | Low -- °F
--% Chance of Precip.
Yesterday
High -- | Low -- °F
Precip. -- in
6:44 AM 4:51 PM
Waxing Gibbous, 94% visible
Pressure 30.01 in
Visibility 6.2 miles
Clouds Few 2000 ft
Scattered Clouds 3500 ft
Windchill 31 °F
Dew Point 20 °F
Humidity 62%
Rainfall 0.04 in
Snow Depth Not available.
UV 0.0 out of 12
Pollen Not available.
Air Quality Not available.
Flu Activity Not available.
METAR RJSA 010800Z 31009KT 280V350 9999 FEW020 SCT035 M02/M08 Q1016

More Conditions Fewer Conditions

Pressure 30.01 in
Visibility 6.2 miles
Clouds Few 2000 ft
Scattered Clouds 3500 ft
Windchill 31 °F
Dew Point 20 °F
Humidity 62%
Rainfall 0.04 in
Snow Depth Not available.
UV 0.0 out of 12
Pollen Not available.
Air Quality Not available.
Flu Activity Not available.
METAR RJSA 010800Z 31009KT 280V350 9999 FEW020 SCT035 M02/M08 Q1016

More Conditions Fewer Conditions

10-Day Weather Forecast

Almanac

Astronomy

Feb. 01, 2015 Rise Set
Actual Time
Civil Twilight
Nautical Twilight
Astronomical Twilight
Moon
Length of Visible Light
Length of Day
Tomorrow will be .
, % of the Moon is Illuminated

Today's Extremes

Country Highs Country Lows

Community

WunderPhotos

Upload Photos

1,792,332 photos uploaded!

WunderBlogs® & News

Nearby

Air Quality

  Air Quality AQ Index Pollutant
Not available.

Snow Depth

Station Depth Elevation

Earthquake Activity

City Distance Mag. Time & Date
Minimum magnitude displayed is 2.5.

Coastal Water Temperatures

Place Temperature

Nearby Weather Stations